KMNH

Monument Pass Airport

Monument Pass, Colorado, USA
METAR KMNH 160524Z AUTO 22007KT 10SM CLR M05/M07 A3036 RMK AO2
Observed Flight Rules
Oct-16 @ 05:24 UTC (35 minutes ago) Visual Flight Rules
Wind Visibility Clouds
220° at 7 knots 10 miles
  • Clear skies
Temperatures Readings
Current -5°C / 23°F
Dewpoint -7°C / 19°F
Humidity 86%
Altimeter 30.36" Hg
Pressure 1028 hPa
Elevation 2152
METAR KMNH 160524Z AUTO 22007KT 10SM CLR M05/M07 A3036 RMK AO2
Observed Flight Rules
Oct-16 @ 05:24 UTC
(35 minutes ago)
VFR
Wind Visibility
220° at 7 knots 10 miles
Clouds
  • Clear skies
Temperature Dewpoint
-5°C / 23°F -7°C / 19°F
Humidity Altimeter Pressure
86% 30.36" Hg 1028 hPa